createdAt,value
2017-12-19T00:01:18.934Z,19.38
2017-12-19T00:03:46.331Z,19.35
2017-12-19T00:06:13.686Z,19.39
2017-12-19T00:08:41.150Z,19.37
2017-12-19T00:11:08.492Z,19.35
2017-12-19T00:13:35.877Z,19.17
2017-12-19T00:16:03.211Z,19.24
2017-12-19T00:18:30.546Z,19.30
2017-12-19T00:20:57.967Z,19.24
2017-12-19T00:23:25.323Z,19.28
2017-12-19T00:25:52.682Z,19.19
2017-12-19T00:28:20.072Z,19.22
2017-12-19T00:30:47.410Z,19.27
2017-12-19T00:33:14.799Z,19.25
2017-12-19T00:35:42.138Z,19.24
2017-12-19T00:38:09.554Z,19.15
2017-12-19T00:40:36.891Z,19.13
2017-12-19T00:43:04.291Z,19.19
2017-12-19T00:45:31.763Z,19.21
2017-12-19T00:47:59.155Z,19.22
2017-12-19T00:50:26.550Z,19.22
2017-12-19T00:52:53.921Z,19.22
2017-12-19T00:55:21.316Z,19.18
2017-12-19T00:57:48.657Z,19.22
2017-12-19T01:00:16.083Z,19.18
2017-12-19T01:02:43.435Z,19.17
2017-12-19T01:05:10.803Z,19.13
2017-12-19T01:07:38.200Z,19.20
2017-12-19T01:10:05.588Z,19.11
2017-12-19T01:12:32.991Z,19.14
2017-12-19T01:15:00.326Z,19.16
2017-12-19T01:17:27.686Z,19.14
2017-12-19T01:19:55.087Z,19.16
2017-12-19T01:22:22.489Z,19.11
2017-12-19T01:24:49.854Z,19.02
2017-12-19T01:27:17.235Z,19.04
2017-12-19T01:29:44.609Z,19.13
2017-12-19T01:32:12.038Z,19.10
2017-12-19T01:34:39.420Z,19.07
2017-12-19T01:37:06.803Z,19.06
2017-12-19T01:39:34.137Z,19.01
2017-12-19T01:42:01.519Z,19.02
2017-12-19T01:44:28.901Z,19.06
2017-12-19T01:46:56.269Z,19.04
2017-12-19T01:49:23.670Z,19.02
2017-12-19T01:51:51.030Z,19.02
2017-12-19T01:54:18.462Z,18.95
2017-12-19T01:56:45.873Z,18.80
2017-12-19T01:59:13.253Z,18.99
2017-12-19T02:01:40.590Z,18.85
2017-12-19T02:04:08.049Z,19.03
2017-12-19T02:06:35.402Z,18.89
2017-12-19T02:09:02.776Z,18.86
2017-12-19T02:11:30.167Z,18.78
2017-12-19T02:13:57.525Z,18.75
2017-12-19T02:16:24.924Z,18.77
2017-12-19T02:18:52.337Z,18.78
2017-12-19T02:21:19.693Z,18.80
2017-12-19T02:23:47.074Z,18.79
2017-12-19T02:26:14.470Z,18.87
2017-12-19T02:28:41.830Z,18.84
2017-12-19T02:31:09.265Z,18.94
2017-12-19T02:33:36.613Z,18.93
2017-12-19T02:36:04.055Z,18.89
2017-12-19T02:38:31.409Z,18.93
2017-12-19T02:40:58.807Z,18.99
2017-12-19T02:43:26.188Z,18.99
2017-12-19T02:45:53.585Z,19.06
2017-12-19T02:48:20.970Z,19.04
2017-12-19T02:50:48.353Z,19.15
2017-12-19T02:53:15.783Z,19.10
2017-12-19T02:55:43.210Z,18.99
2017-12-19T02:58:10.545Z,19.18
2017-12-19T03:00:37.907Z,19.08
2017-12-19T03:03:05.343Z,19.18
2017-12-19T03:05:32.737Z,18.92
2017-12-19T03:08:00.083Z,19.09
2017-12-19T03:10:27.513Z,19.17
2017-12-19T03:12:54.919Z,19.23
2017-12-19T03:15:22.364Z,19.15
2017-12-19T03:17:49.739Z,19.17
2017-12-19T03:20:17.097Z,19.20
2017-12-19T03:22:44.478Z,19.25
2017-12-19T03:25:18.006Z,19.25
2017-12-19T03:27:45.427Z,19.10
2017-12-19T03:30:12.825Z,19.22
2017-12-19T03:32:40.188Z,19.23
2017-12-19T03:35:07.582Z,19.30
2017-12-19T03:37:35.025Z,19.30
2017-12-19T03:40:02.451Z,19.30
2017-12-19T03:42:29.814Z,19.32
2017-12-19T03:44:57.216Z,19.34
2017-12-19T03:47:24.579Z,19.37
2017-12-19T03:49:51.970Z,19.30
2017-12-19T03:52:19.311Z,19.33
2017-12-19T03:54:46.683Z,19.28
2017-12-19T03:57:14.079Z,19.28
2017-12-19T03:59:41.470Z,19.30
2017-12-19T04:02:08.837Z,19.41
2017-12-19T04:04:36.223Z,19.38
2017-12-19T04:07:03.611Z,19.35
2017-12-19T04:09:30.997Z,19.46
2017-12-19T04:11:58.390Z,19.52
2017-12-19T04:14:25.792Z,19.53
2017-12-19T04:16:53.224Z,19.54
2017-12-19T04:19:20.605Z,19.65
2017-12-19T04:21:47.998Z,19.67
2017-12-19T04:24:15.330Z,19.81
2017-12-19T04:26:42.774Z,19.89
2017-12-19T04:29:10.167Z,19.88
2017-12-19T04:31:37.553Z,19.87
2017-12-19T04:34:04.966Z,19.90
2017-12-19T04:36:32.383Z,19.95
2017-12-19T04:38:59.776Z,19.93
2017-12-19T04:41:27.237Z,20.00
2017-12-19T04:43:54.754Z,20.06
2017-12-19T04:46:22.140Z,20.04
2017-12-19T04:48:49.553Z,20.04
2017-12-19T04:51:16.967Z,20.08
2017-12-19T04:53:44.391Z,20.18
2017-12-19T04:56:11.802Z,20.18
2017-12-19T04:58:39.258Z,20.19
2017-12-19T05:01:06.654Z,20.10
2017-12-19T05:03:34.041Z,20.15
2017-12-19T05:06:01.480Z,20.24
2017-12-19T05:08:28.860Z,20.24
2017-12-19T05:10:56.325Z,20.31
2017-12-19T05:13:23.708Z,20.35
2017-12-19T05:15:51.111Z,20.31
2017-12-19T05:18:18.534Z,20.35
2017-12-19T05:20:45.949Z,20.40
2017-12-19T05:23:13.377Z,20.41
2017-12-19T05:25:40.718Z,20.43
2017-12-19T05:28:08.079Z,20.43
2017-12-19T05:30:35.524Z,20.37
2017-12-19T05:33:02.890Z,20.46
2017-12-19T05:35:30.250Z,20.47
2017-12-19T05:37:57.731Z,20.55
2017-12-19T05:40:25.082Z,20.48
2017-12-19T05:42:52.459Z,20.52
2017-12-19T05:45:19.895Z,20.58
2017-12-19T05:47:47.251Z,20.61
2017-12-19T05:50:14.636Z,20.56
2017-12-19T05:52:42.092Z,20.62
2017-12-19T05:55:09.536Z,20.54
2017-12-19T05:57:37.013Z,20.47
2017-12-19T06:00:04.484Z,20.63
2017-12-19T06:02:31.922Z,20.60
2017-12-19T06:04:59.306Z,20.57
2017-12-19T06:07:26.719Z,20.71
2017-12-19T06:09:54.138Z,20.73
2017-12-19T06:12:21.558Z,20.68
2017-12-19T06:14:48.953Z,20.73
2017-12-19T06:17:16.385Z,20.75
2017-12-19T06:19:45.823Z,20.86
2017-12-19T06:22:13.216Z,20.81
2017-12-19T06:24:40.654Z,20.85
2017-12-19T06:27:08.367Z,20.82
2017-12-19T06:29:35.786Z,20.82
2017-12-19T06:32:03.223Z,20.88
2017-12-19T06:34:30.676Z,20.91
2017-12-19T06:36:59.180Z,20.87
2017-12-19T06:39:26.635Z,20.94
2017-12-19T06:41:54.763Z,20.97
2017-12-19T06:44:22.281Z,20.99
2017-12-19T06:46:49.746Z,20.95
2017-12-19T06:49:17.222Z,20.92
2017-12-19T06:51:44.661Z,20.96
2017-12-19T06:54:12.220Z,21.01
2017-12-19T06:56:39.634Z,20.99
2017-12-19T06:59:07.054Z,20.97
2017-12-19T07:01:34.507Z,21.06
2017-12-19T07:04:01.961Z,21.07
2017-12-19T07:06:29.384Z,21.08
2017-12-19T07:08:56.807Z,21.19
2017-12-19T07:11:24.523Z,21.11
2017-12-19T07:13:51.985Z,21.19
2017-12-19T07:16:19.486Z,21.19
2017-12-19T07:18:47.152Z,21.13
2017-12-19T07:21:16.080Z,21.18
2017-12-19T07:23:43.464Z,21.29
2017-12-19T07:26:10.902Z,21.27
2017-12-19T07:28:38.381Z,21.28
2017-12-19T07:31:05.894Z,21.26
2017-12-19T07:33:33.542Z,21.25
2017-12-19T07:36:01.049Z,21.32
2017-12-19T07:38:29.010Z,21.19
2017-12-19T07:40:56.461Z,21.27
2017-12-19T07:43:23.932Z,21.30
2017-12-19T07:45:51.433Z,21.25
2017-12-19T07:48:18.867Z,21.36
2017-12-19T07:50:46.365Z,21.35
2017-12-19T07:53:13.890Z,21.47
2017-12-19T07:55:41.407Z,21.44
2017-12-19T07:58:08.814Z,21.29
2017-12-19T08:00:36.263Z,21.45
2017-12-19T08:03:03.638Z,21.62
2017-12-19T08:05:31.048Z,21.52
2017-12-19T08:07:58.439Z,21.62
2017-12-19T08:10:25.880Z,21.63
2017-12-19T08:12:53.393Z,21.73
2017-12-19T08:15:20.780Z,21.42
2017-12-19T08:17:48.296Z,21.74
2017-12-19T08:20:15.690Z,21.73
2017-12-19T08:22:43.093Z,21.61
2017-12-19T08:25:10.864Z,21.67
2017-12-19T08:27:38.242Z,21.71
2017-12-19T08:30:06.207Z,21.70
2017-12-19T08:32:33.841Z,21.65
2017-12-19T08:35:02.125Z,21.92
2017-12-19T08:37:29.684Z,21.77
2017-12-19T08:39:57.111Z,21.90
2017-12-19T08:42:24.757Z,21.63
2017-12-19T08:44:52.330Z,21.84
2017-12-19T08:47:19.856Z,21.98
2017-12-19T08:49:47.577Z,21.78
2017-12-19T08:52:15.200Z,21.87
2017-12-19T08:54:42.979Z,21.92
2017-12-19T08:57:10.410Z,22.10
2017-12-19T08:59:37.972Z,22.12
2017-12-19T09:02:05.403Z,22.05
2017-12-19T09:04:32.930Z,22.03
2017-12-19T09:07:00.411Z,22.02
2017-12-19T09:09:28.375Z,22.10
2017-12-19T09:11:57.097Z,22.04
2017-12-19T09:14:26.037Z,22.18
2017-12-19T09:16:53.606Z,22.05
2017-12-19T09:19:21.150Z,22.17
2017-12-19T09:21:48.658Z,22.21
2017-12-19T09:24:16.206Z,22.14
2017-12-19T09:26:43.687Z,22.25
2017-12-19T09:29:11.143Z,22.25
2017-12-19T09:31:39.564Z,22.18
2017-12-19T09:34:07.442Z,22.29
2017-12-19T09:36:35.050Z,22.23
2017-12-19T09:39:03.072Z,22.14
2017-12-19T09:41:30.666Z,22.30
2017-12-19T09:43:58.047Z,22.25
2017-12-19T09:46:25.544Z,22.27
2017-12-19T09:48:53.033Z,22.07
2017-12-19T09:51:20.633Z,22.26
2017-12-19T09:53:52.429Z,22.25
2017-12-19T09:56:20.051Z,22.26
2017-12-19T09:58:47.596Z,22.35
2017-12-19T10:01:15.372Z,22.33
2017-12-19T10:03:42.888Z,22.39
2017-12-19T10:06:10.340Z,22.38
2017-12-19T10:08:37.835Z,22.35
2017-12-19T10:11:05.312Z,22.30
2017-12-19T10:13:32.914Z,22.36
2017-12-19T10:16:00.283Z,22.30
2017-12-19T10:18:27.739Z,22.27
2017-12-19T10:20:55.182Z,22.33
2017-12-19T10:23:22.788Z,22.36
2017-12-19T10:25:50.238Z,22.34
2017-12-19T10:28:17.702Z,22.27
2017-12-19T10:33:09.825Z,22.38
2017-12-19T10:35:37.858Z,22.41
2017-12-19T10:38:05.440Z,22.37
2017-12-19T10:40:32.920Z,22.35
2017-12-19T10:43:00.345Z,22.42
2017-12-19T10:45:27.804Z,22.57
2017-12-19T10:47:55.313Z,22.54
2017-12-19T10:50:22.819Z,22.53
2017-12-19T10:52:50.646Z,22.58
2017-12-19T10:55:18.178Z,22.60
2017-12-19T10:57:45.703Z,22.71
2017-12-19T11:00:13.175Z,22.69
2017-12-19T11:02:40.729Z,22.63
2017-12-19T11:05:08.182Z,22.75
2017-12-19T11:07:35.794Z,22.87
2017-12-19T11:10:03.190Z,22.78
2017-12-19T11:12:30.770Z,22.87
2017-12-19T11:14:58.251Z,22.90
2017-12-19T11:17:25.735Z,23.01
2017-12-19T11:19:54.116Z,22.96
2017-12-19T11:22:21.704Z,23.03
2017-12-19T11:24:49.798Z,23.10
2017-12-19T11:27:17.467Z,23.06
2017-12-19T11:29:44.917Z,23.06
2017-12-19T11:32:12.444Z,23.14
2017-12-19T11:34:39.930Z,23.17
2017-12-19T11:37:07.916Z,23.09
2017-12-19T11:39:35.476Z,23.09
2017-12-19T11:42:03.389Z,22.86
2017-12-19T11:44:30.987Z,22.87
2017-12-19T11:46:58.394Z,22.85
2017-12-19T11:49:25.912Z,22.79
2017-12-19T11:51:53.724Z,22.89
2017-12-19T11:54:21.257Z,23.13
2017-12-19T11:56:48.744Z,23.01
2017-12-19T11:59:16.120Z,22.91
2017-12-19T12:01:43.555Z,22.87
2017-12-19T12:04:10.961Z,22.85
2017-12-19T12:06:38.372Z,23.09
2017-12-19T12:09:05.937Z,22.90
2017-12-19T12:11:33.331Z,22.98
2017-12-19T12:14:00.713Z,22.87
2017-12-19T12:16:28.183Z,22.88
2017-12-19T12:18:55.720Z,22.69
2017-12-19T12:21:23.149Z,22.75
2017-12-19T12:23:50.553Z,22.84
2017-12-19T12:26:17.976Z,22.64
2017-12-19T12:28:45.411Z,22.88
2017-12-19T12:31:12.832Z,22.90
2017-12-19T12:33:40.251Z,22.71
2017-12-19T12:36:07.675Z,22.89
2017-12-19T12:38:35.198Z,22.75
2017-12-19T12:41:02.612Z,22.69
2017-12-19T12:43:30.023Z,22.84
2017-12-19T12:45:57.490Z,22.81
2017-12-19T12:48:25.044Z,22.57
2017-12-19T12:50:52.493Z,22.76
2017-12-19T12:53:19.950Z,22.75
2017-12-19T12:55:47.561Z,22.56
2017-12-19T12:58:14.979Z,22.68
2017-12-19T13:00:42.425Z,22.62
2017-12-19T13:03:09.809Z,22.77
2017-12-19T13:05:37.437Z,22.60
2017-12-19T13:08:04.900Z,22.87
2017-12-19T13:10:33.744Z,22.81
2017-12-19T13:13:01.197Z,22.65
2017-12-19T13:15:28.649Z,22.88
2017-12-19T13:17:56.206Z,22.92
2017-12-19T13:20:23.729Z,22.84
2017-12-19T13:22:51.222Z,22.78
2017-12-19T13:25:18.708Z,22.86
2017-12-19T13:27:46.095Z,22.83
2017-12-19T13:30:20.891Z,22.63
2017-12-19T13:32:48.332Z,22.69
2017-12-19T13:35:16.040Z,22.85
2017-12-19T13:37:43.604Z,22.81
2017-12-19T13:40:11.442Z,22.90
2017-12-19T13:42:38.964Z,23.06
2017-12-19T13:45:18.866Z,22.69
2017-12-19T13:47:46.316Z,22.86
2017-12-19T13:50:21.079Z,22.90
2017-12-19T13:52:48.518Z,22.91
2017-12-19T13:55:19.005Z,22.32
2017-12-19T13:57:46.450Z,23.05
2017-12-19T14:00:24.535Z,22.90
2017-12-19T14:02:52.137Z,23.12
2017-12-19T14:05:19.691Z,22.95
2017-12-19T14:07:47.127Z,22.81
2017-12-19T14:10:16.843Z,23.01
2017-12-19T14:12:44.420Z,23.17
2017-12-19T14:15:11.903Z,23.06
2017-12-19T14:17:39.340Z,23.06
2017-12-19T14:20:13.876Z,22.90
2017-12-19T14:22:41.793Z,23.02
2017-12-19T14:25:09.554Z,22.87
2017-12-19T14:27:37.261Z,23.08
2017-12-19T14:30:04.870Z,23.14
2017-12-19T14:32:32.380Z,23.05
2017-12-19T14:34:59.890Z,23.11
2017-12-19T14:37:27.664Z,23.26
2017-12-19T14:39:55.173Z,23.42
2017-12-19T14:42:22.813Z,23.19
2017-12-19T14:44:50.241Z,22.93
2017-12-19T14:47:17.887Z,22.84
2017-12-19T14:49:45.390Z,22.89
2017-12-19T14:52:12.895Z,23.02
2017-12-19T14:54:41.478Z,23.13
2017-12-19T14:57:09.116Z,22.97
2017-12-19T14:59:36.672Z,22.96
2017-12-19T15:02:04.076Z,22.95
2017-12-19T15:04:31.653Z,22.87
2017-12-19T15:06:59.531Z,22.83
2017-12-19T15:09:27.161Z,22.80
2017-12-19T15:11:54.523Z,23.02
2017-12-19T15:14:22.082Z,22.86
2017-12-19T15:16:49.529Z,23.00
2017-12-19T15:19:17.418Z,22.92
2017-12-19T15:21:44.911Z,22.91
2017-12-19T15:24:12.461Z,22.92
2017-12-19T15:26:40.031Z,22.80
2017-12-19T15:29:07.516Z,22.76
2017-12-19T15:31:34.969Z,22.91
2017-12-19T15:34:02.376Z,22.81
2017-12-19T15:36:29.895Z,22.64
2017-12-19T15:38:57.356Z,22.60
2017-12-19T15:41:25.408Z,22.72
2017-12-19T15:43:52.880Z,22.63
2017-12-19T15:46:20.280Z,22.66
2017-12-19T15:48:47.727Z,22.58
2017-12-19T15:51:15.192Z,22.59
2017-12-19T15:53:42.564Z,22.62
2017-12-19T15:56:10.033Z,22.53
2017-12-19T15:58:37.522Z,22.54
2017-12-19T16:01:04.935Z,22.68
2017-12-19T16:03:32.346Z,22.49
2017-12-19T16:05:59.807Z,22.57
2017-12-19T16:08:27.252Z,22.59
2017-12-19T16:10:54.648Z,22.52
2017-12-19T16:13:22.085Z,22.36
2017-12-19T16:15:49.754Z,22.55
2017-12-19T16:18:17.427Z,22.43
2017-12-19T16:20:44.859Z,22.41
2017-12-19T16:23:12.272Z,22.38
2017-12-19T16:25:39.706Z,22.40
2017-12-19T16:28:07.105Z,22.36
2017-12-19T16:30:34.521Z,22.41
2017-12-19T16:33:01.932Z,22.40
2017-12-19T16:35:29.376Z,22.11
2017-12-19T16:37:56.745Z,22.24
2017-12-19T16:40:24.139Z,22.24
2017-12-19T16:42:51.528Z,22.29
2017-12-19T16:45:19.716Z,22.22
2017-12-19T16:47:47.167Z,22.21
2017-12-19T16:50:14.681Z,22.26
2017-12-19T16:52:42.234Z,22.19
2017-12-19T16:55:09.831Z,22.12
2017-12-19T16:57:37.281Z,22.12
2017-12-19T17:00:04.672Z,21.90
2017-12-19T17:02:32.056Z,22.17
2017-12-19T17:04:59.475Z,22.14
2017-12-19T17:07:26.919Z,22.07
2017-12-19T17:09:54.318Z,22.11
2017-12-19T17:12:21.713Z,22.08
2017-12-19T17:14:49.121Z,21.99
2017-12-19T17:17:16.478Z,22.01
2017-12-19T17:19:43.831Z,21.94
2017-12-19T17:22:11.235Z,22.05
2017-12-19T17:24:38.644Z,21.76
2017-12-19T17:27:06.019Z,21.97
2017-12-19T17:29:33.408Z,21.94
2017-12-19T17:32:00.835Z,21.96
2017-12-19T17:34:28.199Z,21.82
2017-12-19T17:36:55.617Z,21.88
2017-12-19T17:39:22.991Z,21.92
2017-12-19T17:41:50.441Z,21.91
2017-12-19T17:44:17.804Z,21.91
2017-12-19T17:46:45.266Z,21.79
2017-12-19T17:49:12.688Z,21.82
2017-12-19T17:51:40.092Z,21.79
2017-12-19T17:54:07.428Z,21.71
2017-12-19T17:56:34.852Z,21.86
2017-12-19T17:59:02.930Z,21.79
2017-12-19T18:01:30.292Z,21.74
2017-12-19T18:03:57.824Z,21.92
2017-12-19T18:06:27.248Z,21.88
2017-12-19T18:08:54.734Z,21.69
2017-12-19T18:11:22.159Z,21.84
2017-12-19T18:13:49.610Z,21.79
2017-12-19T18:16:16.987Z,21.72
2017-12-19T18:18:44.377Z,21.80
2017-12-19T18:21:11.762Z,21.78
2017-12-19T18:23:39.168Z,21.75
2017-12-19T18:26:06.542Z,21.71
2017-12-19T18:28:33.949Z,21.80
2017-12-19T18:31:01.307Z,21.78
2017-12-19T18:33:28.723Z,21.79
2017-12-19T18:35:56.111Z,21.79
2017-12-19T18:38:23.596Z,21.79
2017-12-19T18:40:50.969Z,21.73
2017-12-19T18:43:18.354Z,21.61
2017-12-19T18:45:45.771Z,21.74
2017-12-19T18:48:13.152Z,21.57
2017-12-19T18:50:40.558Z,21.76
2017-12-19T18:53:07.990Z,21.73
2017-12-19T18:55:35.351Z,21.71
2017-12-19T18:58:02.727Z,21.63
2017-12-19T19:00:30.118Z,21.68
2017-12-19T19:02:57.474Z,21.68
2017-12-19T19:05:24.871Z,21.64
2017-12-19T19:07:52.302Z,21.50
2017-12-19T19:10:19.634Z,21.65
2017-12-19T19:12:47.036Z,21.64
2017-12-19T19:15:14.451Z,21.60
2017-12-19T19:17:41.804Z,21.60
2017-12-19T19:20:09.219Z,21.50
2017-12-19T19:22:36.727Z,21.56
2017-12-19T19:25:04.087Z,21.55
2017-12-19T19:27:31.461Z,21.54
2017-12-19T19:29:58.869Z,21.52
2017-12-19T19:32:26.214Z,21.50
2017-12-19T19:34:53.573Z,21.45
2017-12-19T19:37:20.979Z,21.36
2017-12-19T19:39:48.423Z,21.47
2017-12-19T19:42:15.753Z,21.45
2017-12-19T19:44:43.129Z,21.44
2017-12-19T19:47:10.479Z,21.43
2017-12-19T19:49:37.886Z,21.43
2017-12-19T19:52:05.246Z,21.29
2017-12-19T19:54:32.610Z,21.31
2017-12-19T19:57:00.011Z,21.36
2017-12-19T19:59:27.397Z,21.38
2017-12-19T20:01:54.822Z,21.34
2017-12-19T20:04:22.179Z,21.36
2017-12-19T20:06:49.580Z,21.33
2017-12-19T20:09:16.974Z,21.33
2017-12-19T20:11:44.343Z,21.26
2017-12-19T20:14:11.726Z,21.21
2017-12-19T20:16:39.163Z,21.14
2017-12-19T20:19:06.587Z,21.05
2017-12-19T20:21:33.949Z,21.08
2017-12-19T20:24:01.360Z,21.03
2017-12-19T20:26:28.764Z,20.98
2017-12-19T20:28:56.112Z,20.94
2017-12-19T20:31:23.548Z,20.90
2017-12-19T20:33:50.959Z,20.91
2017-12-19T20:36:18.294Z,20.83
2017-12-19T20:38:45.651Z,20.85
2017-12-19T20:41:13.093Z,20.80
2017-12-19T20:43:40.485Z,20.69
2017-12-19T20:46:07.848Z,20.45
2017-12-19T20:48:35.286Z,20.72
2017-12-19T20:51:02.687Z,20.66
2017-12-19T20:53:30.048Z,20.62
2017-12-19T20:55:57.407Z,20.57
2017-12-19T20:58:24.807Z,20.60
2017-12-19T21:00:52.151Z,20.52
2017-12-19T21:03:19.645Z,20.53
2017-12-19T21:05:47.012Z,20.48
2017-12-19T21:08:14.398Z,20.30
2017-12-19T21:10:41.742Z,20.46
2017-12-19T21:13:09.162Z,20.43
2017-12-19T21:15:36.503Z,20.40
2017-12-19T21:18:03.869Z,20.40
2017-12-19T21:20:31.380Z,20.37
2017-12-19T21:22:58.730Z,20.34
2017-12-19T21:25:26.247Z,20.37
2017-12-19T21:27:53.620Z,20.30
2017-12-19T21:30:20.971Z,20.27
2017-12-19T21:32:48.367Z,20.24
2017-12-19T21:35:15.740Z,20.27
2017-12-19T21:37:43.082Z,20.26
2017-12-19T21:40:10.453Z,20.27
2017-12-19T21:42:37.828Z,20.18
2017-12-19T21:45:05.180Z,20.22
2017-12-19T21:47:32.574Z,20.17
2017-12-19T21:49:59.921Z,20.17
2017-12-19T21:52:27.330Z,20.12
2017-12-19T21:54:54.690Z,20.15
2017-12-19T21:57:22.086Z,20.13
2017-12-19T21:59:49.474Z,20.02
2017-12-19T22:02:16.847Z,19.98
2017-12-19T22:04:44.254Z,19.98
2017-12-19T22:07:11.621Z,19.88
2017-12-19T22:09:39.019Z,20.09
2017-12-19T22:12:06.415Z,20.08
2017-12-19T22:14:33.839Z,20.01
2017-12-19T22:17:01.190Z,19.95
2017-12-19T22:19:28.591Z,20.00
2017-12-19T22:21:55.990Z,19.98
2017-12-19T22:24:23.326Z,19.91
2017-12-19T22:26:50.716Z,19.82
2017-12-19T22:29:18.079Z,19.95
2017-12-19T22:31:45.473Z,19.91
2017-12-19T22:34:12.858Z,19.91
2017-12-19T22:36:40.222Z,19.86
2017-12-19T22:39:07.639Z,19.93
2017-12-19T22:41:35.006Z,19.89
2017-12-19T22:44:02.376Z,19.82
2017-12-19T22:46:29.773Z,19.78
2017-12-19T22:48:57.190Z,19.65
2017-12-19T22:51:24.564Z,19.80
2017-12-19T22:54:05.286Z,19.77
2017-12-19T22:56:32.690Z,19.62
2017-12-19T22:59:00.079Z,19.79
2017-12-19T23:01:27.432Z,19.81
2017-12-19T23:03:54.796Z,19.81
2017-12-19T23:06:22.233Z,19.72
2017-12-19T23:08:49.575Z,19.64
2017-12-19T23:11:16.976Z,19.72
2017-12-19T23:13:44.401Z,19.76
2017-12-19T23:16:11.758Z,19.68
2017-12-19T23:18:39.104Z,19.74
2017-12-19T23:21:06.556Z,19.73
2017-12-19T23:23:33.949Z,19.66
2017-12-19T23:26:01.316Z,19.73
2017-12-19T23:28:28.800Z,19.64
2017-12-19T23:30:56.486Z,19.68
2017-12-19T23:33:23.951Z,19.61
2017-12-19T23:35:51.331Z,19.64
2017-12-19T23:38:18.761Z,19.63
2017-12-19T23:40:46.636Z,19.65
2017-12-19T23:43:14.039Z,19.65
2017-12-19T23:45:41.495Z,19.60
2017-12-19T23:48:08.937Z,19.61
2017-12-19T23:50:37.087Z,19.60
2017-12-19T23:53:04.556Z,19.62
2017-12-19T23:55:32.134Z,19.60
2017-12-19T23:57:59.492Z,19.57
